Time;durP1;ratioP1;P1;durP2;ratioP2;P2;SDS_P1;SDS_P2;PMS_P1;PMS_P2;Temp;Humidity;BMP_temperature;BMP_pressure;BME280_temperature;BME280_humidity;BME280_pressure;Samples;Min_cycle;Max_cycle;Signal;HPM_P1;HPM_P2
2022/12/13 00:00:24;;;;;;;39.88;15.77;;;;;;;-6.14;100.00;100485.88;5164079;28;20032;-74
2022/12/13 00:02:55;;;;;;;38.28;14.70;;;;;;;-6.26;100.00;100485.53;5160697;28;20030;-75
2022/12/13 00:05:25;;;;;;;37.15;16.05;;;;;;;-6.23;100.00;100482.22;5173260;28;20034;-74
2022/12/13 00:07:55;;;;;;;34.90;14.40;;;;;;;-6.29;100.00;100484.59;5151324;28;20125;-75
2022/12/13 00:10:27;;;;;;;32.65;14.40;;;;;;;-6.28;100.00;100482.06;5170068;28;20025;-73
2022/12/13 00:12:57;;;;;;;41.00;15.85;;;;;;;-6.36;100.00;100475.94;5165210;28;20033;-76
2022/12/13 00:15:28;;;;;;;38.55;15.82;;;;;;;-6.38;100.00;100475.03;5168391;28;20025;-73
2022/12/13 00:17:58;;;;;;;40.80;15.40;;;;;;;-6.42;100.00;100478.25;5169238;28;20030;-74
2022/12/13 00:20:28;;;;;;;33.55;14.63;;;;;;;-6.46;100.00;100476.47;5164756;28;20102;-73
2022/12/13 00:22:59;;;;;;;40.85;15.82;;;;;;;-6.43;100.00;100474.00;5160303;28;20033;-74
2022/12/13 00:25:29;;;;;;;37.17;14.85;;;;;;;-6.18;100.00;100473.91;5168758;28;20096;-73
2022/12/13 00:27:59;;;;;;;35.40;14.98;;;;;;;-6.36;100.00;100473.38;5172689;28;20042;-75
2022/12/13 00:30:32;;;;;;;39.03;15.45;;;;;;;-6.54;100.00;100471.97;5172099;28;20396;-74
2022/12/13 00:33:03;;;;;;;42.15;15.77;;;;;;;-6.58;100.00;100465.91;5169427;28;20018;-74
2022/12/13 00:35:39;;;;;;;36.00;14.93;;;;;;;-6.52;100.00;100471.19;5169572;28;20033;-74
2022/12/13 00:38:09;;;;;;;36.83;14.85;;;;;;;-6.56;100.00;100461.75;5173322;28;20076;-73
2022/12/13 00:40:39;;;;;;;37.72;15.02;;;;;;;-6.47;100.00;100468.78;5165420;28;20483;-74
2022/12/13 00:43:10;;;;;;;33.30;14.38;;;;;;;-6.18;100.00;100468.84;5161251;28;20033;-75
2022/12/13 00:45:40;;;;;;;36.60;15.60;;;;;;;-6.25;100.00;100468.59;5170575;28;20034;-74
2022/12/13 00:48:10;;;;;;;34.45;13.82;;;;;;;-6.48;100.00;100467.94;5170345;28;20057;-74
2022/12/13 00:50:41;;;;;;;34.20;14.45;;;;;;;-6.45;100.00;100468.00;5163337;28;20041;-74
2022/12/13 00:53:11;;;;;;;35.58;14.02;;;;;;;-6.32;100.00;100459.94;5162401;28;20053;-74
2022/12/13 00:55:41;;;;;;;34.33;14.40;;;;;;;-6.56;100.00;100466.81;5169084;28;20113;-76
2022/12/13 00:58:11;;;;;;;34.95;14.65;;;;;;;-6.64;100.00;100463.19;5170933;28;20038;-74
2022/12/13 01:00:42;;;;;;;37.97;15.25;;;;;;;-6.61;100.00;100465.84;5170112;28;20483;-75
2022/12/13 01:03:24;;;;;;;37.60;14.48;;;;;;;-6.65;100.00;100460.59;5166886;28;20035;-75
2022/12/13 01:05:54;;;;;;;37.80;14.80;;;;;;;-6.59;100.00;100455.72;5174380;28;20534;-76
2022/12/13 01:08:26;;;;;;;40.95;15.05;;;;;;;-6.61;100.00;100450.59;5174537;28;20053;-76
2022/12/13 01:10:56;;;;;;;41.08;15.48;;;;;;;-6.52;100.00;100450.88;5171741;28;20452;-74
2022/12/13 01:13:27;;;;;;;36.03;15.40;;;;;;;-6.47;100.00;100445.91;5173236;28;20056;-78
2022/12/13 01:15:57;;;;;;;41.95;16.00;;;;;;;-6.58;100.00;100455.75;5172622;28;20042;-74
2022/12/13 01:18:27;;;;;;;40.40;16.63;;;;;;;-6.48;100.00;100455.22;5170820;28;20083;-73
2022/12/13 01:20:58;;;;;;;38.40;15.88;;;;;;;-6.55;100.00;100445.72;5165424;28;20126;-74
2022/12/13 01:23:29;;;;;;;38.80;15.38;;;;;;;-6.57;100.00;100447.31;5171574;28;20105;-74
2022/12/13 01:26:08;;;;;;;43.33;17.42;;;;;;;-6.55;100.00;100450.78;5173105;28;20025;-75
2022/12/13 01:28:38;;;;;;;39.72;15.85;;;;;;;-6.55;100.00;100455.00;5176076;28;20614;-73
2022/12/13 01:31:12;;;;;;;38.80;15.43;;;;;;;-6.66;100.00;100457.22;5163162;28;20066;-75
2022/12/13 01:33:43;;;;;;;37.95;14.80;;;;;;;-6.76;100.00;100460.28;5160835;28;20415;-74
2022/12/13 01:36:33;;;;;;;37.05;15.00;;;;;;;-6.90;100.00;100456.44;5169233;28;20069;-77
2022/12/13 01:39:04;;;;;;;38.50;15.60;;;;;;;-6.87;100.00;100448.06;5173171;28;20030;-76
2022/12/13 01:41:34;;;;;;;35.90;15.27;;;;;;;-6.72;100.00;100451.97;5171058;28;20038;-74
2022/12/13 01:44:25;;;;;;;41.25;15.95;;;;;;;-6.70;100.00;100447.78;5174656;28;20054;-74
2022/12/13 01:46:56;;;;;;;42.25;16.33;;;;;;;-6.82;100.00;100444.00;5170319;28;20439;-75
2022/12/13 01:49:26;;;;;;;38.25;16.15;;;;;;;-6.72;100.00;100439.28;5170531;28;20080;-74
2022/12/13 01:52:04;;;;;;;40.70;16.50;;;;;;;-6.72;100.00;100436.72;5166851;28;20034;-73
2022/12/13 01:54:39;;;;;;;41.05;16.73;;;;;;;-6.71;100.00;100435.91;5173043;28;20103;-74
2022/12/13 01:57:11;;;;;;;42.20;16.92;;;;;;;-6.50;100.00;100430.59;5172323;28;20121;-72
2022/12/13 01:59:43;;;;;;;37.95;15.73;;;;;;;-6.62;100.00;100442.94;5170820;28;20183;-74
2022/12/13 02:02:14;;;;;;;41.13;16.13;;;;;;;-6.43;100.00;100437.59;5173208;28;20030;-74
2022/12/13 02:04:54;;;;;;;35.40;14.63;;;;;;;-6.33;100.00;100437.88;5168245;28;20084;-73
2022/12/13 02:07:28;;;;;;;41.80;16.42;;;;;;;-6.37;99.15;100446.25;5177713;28;20086;-74
2022/12/13 02:10:01;;;;;;;49.35;19.08;;;;;;;-6.80;98.80;100450.84;5172829;28;20058;-76
2022/12/13 02:12:33;;;;;;;34.00;13.77;;;;;;;-6.90;100.00;100450.53;5174758;28;20084;-74
2022/12/13 02:15:13;;;;;;;36.28;14.15;;;;;;;-6.97;100.00;100444.38;5176914;28;20032;-73
2022/12/13 02:17:59;;;;;;;32.78;13.82;;;;;;;-6.96;100.00;100441.03;5167719;28;20030;-73
2022/12/13 02:20:32;;;;;;;;;;;;;;;-6.80;100.00;100435.63;5168771;28;20037;-74
2022/12/13 02:23:23;;;;;;;32.78;14.07;;;;;;;-6.61;100.00;100430.28;5174951;28;20008;-74
2022/12/13 02:26:15;;;;;;;33.10;14.25;;;;;;;-6.47;100.00;100429.00;5172931;28;20022;-75
2022/12/13 02:28:57;;;;;;;34.63;14.07;;;;;;;-6.64;99.42;100424.22;5176701;28;20106;-75
2022/12/13 02:31:36;;;;;;;40.10;15.63;;;;;;;-6.84;99.25;100431.25;5172752;28;20056;-75
2022/12/13 02:34:23;;;;;;;37.28;15.65;;;;;;;-6.97;100.00;100430.84;5174238;28;20026;-74
2022/12/13 02:37:11;;;;;;;37.58;15.55;;;;;;;-7.07;100.00;100424.59;5168637;28;20027;-75
2022/12/13 02:39:48;;;;;;;35.67;14.60;;;;;;;-6.93;100.00;100428.44;5170488;28;20068;-74
2022/12/13 02:42:33;;;;;;;37.85;14.82;;;;;;;-6.96;100.00;100425.81;5171557;28;20116;-73
2022/12/13 02:45:14;;;;;;;40.33;15.80;;;;;;;-6.94;100.00;100429.25;5172242;28;20030;-73
2022/12/13 02:47:45;;;;;;;37.40;14.90;;;;;;;-7.11;100.00;100432.09;5161262;28;20041;-74
2022/12/13 02:50:16;;;;;;;38.85;13.93;;;;;;;-7.06;100.00;100431.44;5169333;28;20037;-74
2022/12/13 02:52:48;;;;;;;34.10;14.43;;;;;;;-7.07;100.00;100438.97;5172564;28;20041;-77
2022/12/13 02:55:18;;;;;;;31.58;13.88;;;;;;;-7.02;100.00;100433.25;5173442;28;20042;-73
2022/12/13 02:57:48;;;;;;;41.72;16.67;;;;;;;-6.93;100.00;100420.81;5167933;28;20034;-77
2022/12/13 03:00:42;;;;;;;49.90;17.80;;;;;;;-6.76;100.00;100418.81;5167638;28;20361;-76
2022/12/13 03:03:45;;;;;;;37.60;13.70;;;;;;;-6.85;100.00;100427.00;5171029;28;20045;-74
2022/12/13 03:06:35;;;;;;;32.58;13.68;;;;;;;-6.69;100.00;100421.56;5172951;28;20073;-77
2022/12/13 03:09:24;;;;;;;35.55;13.77;;;;;;;-6.76;99.52;100418.81;5168428;28;20021;-74
2022/12/13 03:15:17;;;;;;;32.10;12.63;;;;;;;-6.85;99.80;100431.22;5168233;28;20041;-74
2022/12/13 03:18:01;;;;;;;28.48;11.93;;;;;;;-6.99;100.00;100430.78;5168243;28;20042;-75
2022/12/13 03:20:32;;;;;;;27.83;11.38;;;;;;;-6.99;100.00;100435.88;5169886;28;20026;-74
2022/12/13 03:23:02;;;;;;;33.60;12.63;;;;;;;-7.01;100.00;100431.53;5175924;28;20044;-76
2022/12/13 03:25:32;;;;;;;28.55;11.32;;;;;;;-7.02;100.00;100423.09;5169258;28;20109;-76
2022/12/13 03:28:03;;;;;;;26.15;11.15;;;;;;;-7.01;100.00;100426.47;5168833;28;20022;-76
2022/12/13 03:30:33;;;;;;;33.85;11.73;;;;;;;-7.00;100.00;100429.06;5167999;28;20056;-73
2022/12/13 03:33:04;;;;;;;27.50;11.32;;;;;;;-6.90;100.00;100425.13;5176860;28;20034;-74
2022/12/13 03:35:35;;;;;;;26.30;11.85;;;;;;;-6.82;100.00;100422.00;5169895;28;20459;-74
2022/12/13 03:38:06;;;;;;;27.73;10.85;;;;;;;-6.91;100.00;100419.19;5169149;28;20546;-74
2022/12/13 03:40:36;;;;;;;29.45;12.15;;;;;;;-7.00;100.00;100418.03;5175272;28;20125;-73
2022/12/13 03:43:07;;;;;;;26.13;11.18;;;;;;;-6.93;100.00;100418.28;5168824;28;20026;-75
2022/12/13 03:45:37;;;;;;;29.00;11.50;;;;;;;-6.97;100.00;100419.00;5166820;28;20047;-73
2022/12/13 03:48:07;;;;;;;27.52;11.55;;;;;;;-6.83;100.00;100412.69;5163898;28;20087;-76
2022/12/13 03:50:37;;;;;;;23.98;10.65;;;;;;;-6.90;98.87;100418.38;5171758;28;20038;-75
2022/12/13 03:53:08;;;;;;;27.73;10.98;;;;;;;-6.99;99.98;100407.06;5169825;28;20391;-76
2022/12/13 03:55:38;;;;;;;28.48;11.80;;;;;;;-6.96;100.00;100408.03;5172009;28;20061;-75
2022/12/13 03:58:08;;;;;;;26.83;11.13;;;;;;;-6.98;100.00;100402.06;5172392;28;20053;-76
2022/12/13 04:00:39;;;;;;;27.70;11.88;;;;;;;-6.95;100.00;100414.00;5170278;28;20085;-75
2022/12/13 04:03:09;;;;;;;25.08;10.85;;;;;;;-6.93;99.72;100415.75;5169775;28;20082;-74
2022/12/13 04:05:40;;;;;;;28.25;10.20;;;;;;;-6.95;99.31;100412.28;5163906;28;20477;-75
2022/12/13 04:08:10;;;;;;;24.38;10.32;;;;;;;-6.93;99.58;100415.75;5168516;28;20385;-76
2022/12/13 04:10:41;;;;;;;25.60;10.15;;;;;;;-6.98;99.80;100409.66;5171844;28;20030;-74
2022/12/13 04:16:01;;;;;;;25.67;10.55;;;;;;;-7.23;100.00;100407.97;5166353;28;20100;-74
2022/12/13 04:18:31;;;;;;;28.55;10.63;;;;;;;-7.28;100.00;100404.44;5168849;28;20031;-75
2022/12/13 04:21:02;;;;;;;26.90;11.10;;;;;;;-7.32;100.00;100400.09;5172807;28;20092;-75
2022/12/13 04:23:32;;;;;;;25.25;9.98;;;;;;;-7.39;100.00;100403.25;5171579;28;20037;-76
2022/12/13 04:26:02;;;;;;;21.50;9.73;;;;;;;-7.34;100.00;100401.72;5176046;28;20029;-75
2022/12/13 04:28:33;;;;;;;23.52;10.02;;;;;;;-7.30;100.00;100406.06;5171627;28;20541;-75
2022/12/13 04:31:03;;;;;;;25.52;10.95;;;;;;;-7.15;100.00;100405.75;5174215;28;20314;-74
2022/12/13 04:33:34;;;;;;;28.73;11.73;;;;;;;-7.15;100.00;100402.31;5170235;28;20195;-74
2022/12/13 04:36:05;;;;;;;28.23;10.90;;;;;;;-6.92;100.00;100402.22;5175160;28;20447;-76
2022/12/13 04:38:35;;;;;;;27.90;10.88;;;;;;;-6.75;100.00;100395.97;5172557;28;20034;-74
2022/12/13 04:41:07;;;;;;;28.77;11.13;;;;;;;-6.88;99.61;100404.06;5180682;28;20025;-75
2022/12/13 04:43:38;;;;;;;29.42;11.00;;;;;;;-7.05;99.99;100392.53;5174622;28;20422;-74
2022/12/13 04:46:08;;;;;;;26.38;11.00;;;;;;;-7.00;100.00;100388.44;5173519;28;20040;-74
2022/12/13 04:48:38;;;;;;;26.23;10.48;;;;;;;-7.01;100.00;100390.94;5172929;28;20022;-74
2022/12/13 04:51:09;;;;;;;25.30;10.25;;;;;;;-6.78;100.00;100374.72;5170186;28;20025;-75
2022/12/13 04:53:39;;;;;;;27.40;10.40;;;;;;;-6.74;97.33;100379.91;5174920;28;20030;-76
2022/12/13 04:56:10;;;;;;;27.00;10.35;;;;;;;-7.01;97.73;100386.72;5171080;28;20022;-75
2022/12/13 04:58:40;;;;;;;24.27;10.05;;;;;;;-7.22;97.76;100389.44;5161389;28;20037;-75
2022/12/13 05:01:11;;;;;;;25.35;9.50;;;;;;;-7.27;99.09;100390.94;5168737;28;20030;-76
2022/12/13 05:03:41;;;;;;;24.17;10.02;;;;;;;-7.32;99.91;100393.31;5171810;28;20459;-74
2022/12/13 05:06:13;;;;;;;25.77;10.98;;;;;;;-7.24;100.00;100401.19;5173128;28;20418;-75
2022/12/13 05:08:43;;;;;;;26.35;10.68;;;;;;;-7.18;100.00;100390.44;5168800;28;20042;-74
2022/12/13 05:11:14;;;;;;;25.48;10.15;;;;;;;-7.12;100.00;100393.16;5172871;28;20403;-75
2022/12/13 05:13:44;;;;;;;24.42;10.23;;;;;;;-7.19;100.00;100392.91;5169692;28;20057;-75
2022/12/13 05:16:14;;;;;;;24.55;10.63;;;;;;;-7.17;99.85;100388.72;5174296;28;20029;-75
2022/12/13 05:18:45;;;;;;;24.75;10.02;;;;;;;-7.31;99.37;100389.13;5171363;28;20030;-74
2022/12/13 05:21:15;;;;;;;25.52;10.23;;;;;;;-7.40;100.00;100388.81;5169388;28;20049;-75
2022/12/13 05:23:45;;;;;;;31.25;10.73;;;;;;;-7.21;100.00;100392.00;5171178;28;20073;-76
2022/12/13 05:26:15;;;;;;;26.65;10.90;;;;;;;-7.22;100.00;100390.28;5174330;28;20095;-75
2022/12/13 05:28:46;;;;;;;26.85;10.55;;;;;;;-7.25;100.00;100390.19;5175567;28;20029;-77
2022/12/13 05:31:16;;;;;;;23.42;10.77;;;;;;;-7.31;100.00;100386.59;5174839;28;20083;-76
2022/12/13 05:33:46;;;;;;;24.65;9.95;;;;;;;-7.25;100.00;100389.31;5166680;28;20057;-76
2022/12/13 05:36:18;;;;;;;25.30;10.20;;;;;;;-7.38;99.72;100389.75;5178444;28;20430;-76
2022/12/13 05:38:48;;;;;;;24.75;10.50;;;;;;;-7.31;100.00;100391.66;5172089;28;20113;-74
2022/12/13 05:41:23;;;;;;;28.35;10.73;;;;;;;-7.40;99.53;100387.16;5172796;28;20109;-76
2022/12/13 05:43:53;;;;;;;22.88;9.85;;;;;;;-7.43;99.55;100393.81;5168332;28;20022;-74
2022/12/13 05:46:24;;;;;;;24.55;10.52;;;;;;;-7.34;100.00;100400.03;5180753;23;20510;-71
2022/12/13 05:48:54;;;;;;;25.88;10.65;;;;;;;-7.51;99.49;100395.25;5163455;28;20038;-71
2022/12/13 05:51:24;;;;;;;25.35;10.55;;;;;;;-7.29;100.00;100392.56;5174591;28;20026;-71
2022/12/13 05:53:55;;;;;;;22.52;9.93;;;;;;;-7.22;100.00;100394.50;5172372;28;20026;-72
2022/12/13 05:56:25;;;;;;;27.92;11.18;;;;;;;-7.29;99.94;100390.03;5173014;28;20487;-73
2022/12/13 05:58:55;;;;;;;27.05;11.43;;;;;;;-7.23;100.00;100391.09;5164630;28;20023;-72
2022/12/13 06:01:25;;;;;;;24.02;10.40;;;;;;;-7.26;100.00;100396.06;5172016;28;20487;-72
2022/12/13 06:03:56;;;;;;;26.92;10.23;;;;;;;-7.31;100.00;100396.75;5161242;28;20030;-71
2022/12/13 06:06:26;;;;;;;26.15;10.60;;;;;;;-7.42;99.73;100391.31;5147473;28;20480;-71
2022/12/13 06:08:58;;;;;;;27.48;10.45;;;;;;;-7.47;99.84;100402.13;5160477;28;20026;-71
2022/12/13 06:11:28;;;;;;;24.10;9.70;;;;;;;-7.42;100.00;100390.44;5169628;28;20034;-71
2022/12/13 06:13:59;;;;;;;24.27;10.18;;;;;;;-7.47;100.00;100392.88;5150401;28;20490;-71
2022/12/13 06:16:29;;;;;;;27.13;10.93;;;;;;;-7.45;100.00;100400.50;5147965;28;20038;-71
2022/12/13 06:18:59;;;;;;;28.08;11.18;;;;;;;-7.51;100.00;100400.31;5150225;28;20022;-71
2022/12/13 06:21:31;;;;;;;28.70;11.43;;;;;;;-7.46;100.00;100388.63;5150471;28;20031;-71
2022/12/13 06:24:04;;;;;;;24.35;10.88;;;;;;;-7.42;100.00;100393.88;5150063;28;20034;-72
2022/12/13 06:26:34;;;;;;;26.42;11.05;;;;;;;-7.10;100.00;100401.66;5168033;28;20040;-73
2022/12/13 06:29:05;;;;;;;27.70;10.57;;;;;;;-7.03;100.00;100395.09;5163811;28;20030;-72
2022/12/13 06:31:35;;;;;;;24.30;10.35;;;;;;;-6.95;99.38;100402.13;5149830;28;20093;-73
2022/12/13 06:34:05;;;;;;;27.17;11.50;;;;;;;-7.04;98.50;100394.25;5146183;28;20069;-73
2022/12/13 06:36:36;;;;;;;28.85;11.25;;;;;;;-7.09;99.23;100393.22;5145875;28;20034;-73
2022/12/13 06:39:06;;;;;;;26.17;10.77;;;;;;;-6.97;100.00;100396.16;5151844;28;20125;-73
2022/12/13 06:41:36;;;;;;;26.25;9.80;;;;;;;-7.05;97.73;100392.53;5149743;28;20034;-72
2022/12/13 06:44:07;;;;;;;29.13;10.00;;;;;;;-7.20;98.56;100396.25;5157203;28;20030;-72
2022/12/13 06:46:37;;;;;;;22.98;9.82;;;;;;;-7.37;100.00;100406.69;5150098;28;20038;-72
2022/12/13 06:49:08;;;;;;;25.67;10.23;;;;;;;-7.15;100.00;100408.28;5148965;28;20631;-72
2022/12/13 06:51:38;;;;;;;27.58;10.27;;;;;;;-7.21;99.72;100408.91;5150920;28;20113;-73
2022/12/13 06:54:09;;;;;;;23.42;9.85;;;;;;;-7.20;100.00;100413.19;5149899;28;20018;-73
2022/12/13 06:56:39;;;;;;;32.25;12.32;;;;;;;-7.20;100.00;100410.63;5145249;28;20041;-73
2022/12/13 06:59:09;;;;;;;23.98;9.82;;;;;;;-7.21;100.00;100421.59;5147805;28;20467;-73
2022/12/13 07:01:40;;;;;;;22.83;9.57;;;;;;;-7.04;100.00;100417.09;5164241;28;20070;-73
2022/12/13 07:04:11;;;;;;;25.30;10.48;;;;;;;-7.00;100.00;100418.03;5153126;28;20182;-72
2022/12/13 07:06:41;;;;;;;25.63;10.23;;;;;;;-7.05;99.06;100415.38;5150859;28;20064;-73
2022/12/13 07:09:11;;;;;;;24.08;9.25;;;;;;;-6.95;99.78;100417.38;5156114;28;20034;-73
2022/12/13 07:11:42;;;;;;;24.13;9.73;;;;;;;-6.91;99.08;100421.72;5150231;28;20034;-73
2022/12/13 07:14:13;;;;;;;21.55;9.50;;;;;;;-7.05;98.84;100424.66;5159319;28;20068;-73
2022/12/13 07:16:43;;;;;;;23.85;9.52;;;;;;;-7.09;100.00;100423.69;5151467;28;20416;-73
2022/12/13 07:19:14;;;;;;;25.38;9.70;;;;;;;-7.18;100.00;100433.56;5151021;28;20044;-72
2022/12/13 07:21:44;;;;;;;22.52;8.82;;;;;;;-7.30;99.68;100427.25;5151567;28;20428;-73
2022/12/13 07:24:14;;;;;;;21.45;9.30;;;;;;;-7.19;100.00;100432.66;5151508;28;20061;-73
2022/12/13 07:26:45;;;;;;;23.20;9.40;;;;;;;-7.11;100.00;100435.47;5148138;28;20045;-72
2022/12/13 07:29:15;;;;;;;22.98;9.05;;;;;;;-7.05;100.00;100432.28;5152903;28;20061;-73
2022/12/13 07:31:46;;;;;;;22.35;8.88;;;;;;;-7.09;100.00;100438.91;5150085;28;20064;-72
2022/12/13 07:34:16;;;;;;;21.73;9.07;;;;;;;-6.97;100.00;100434.25;5153244;28;20023;-73
2022/12/13 07:36:49;;;;;;;23.75;8.90;;;;;;;-6.49;100.00;100424.69;5148529;28;20452;-72
2022/12/13 07:39:19;;;;;;;20.48;8.75;;;;;;;-6.38;99.85;100418.25;5152577;28;20389;-73
2022/12/13 07:41:53;;;;;;;20.88;8.85;;;;;;;-6.45;99.90;100426.50;5150999;28;20045;-73
2022/12/13 07:44:23;;;;;;;20.88;8.63;;;;;;;-6.49;100.00;100430.63;5149620;28;20437;-73
2022/12/13 07:46:54;;;;;;;21.10;8.40;;;;;;;-6.52;100.00;100428.00;5150023;28;20096;-73
2022/12/13 07:49:24;;;;;;;19.45;8.05;;;;;;;-6.67;100.00;100425.00;5150334;28;20026;-73
2022/12/13 07:51:55;;;;;;;24.10;8.82;;;;;;;-6.47;100.00;100423.91;5147833;28;20022;-73
2022/12/13 07:54:26;;;;;;;19.63;8.50;;;;;;;-5.93;100.00;100422.91;5143182;28;20167;-72
2022/12/13 07:56:56;;;;;;;19.88;8.07;;;;;;;-5.25;97.92;100428.03;5165186;28;20017;-72
2022/12/13 07:59:26;;;;;;;18.33;7.97;;;;;;;-4.83;95.90;100421.44;5158059;28;20132;-72
2022/12/13 08:01:56;;;;;;;16.85;8.02;;;;;;;-4.70;93.07;100419.19;5167727;28;20410;-73
2022/12/13 08:04:27;;;;;;;19.17;7.38;;;;;;;-4.46;92.28;100416.31;5153829;28;20130;-73
2022/12/13 08:06:57;;;;;;;17.00;7.40;;;;;;;-4.37;91.00;100414.81;5155911;28;20026;-73
2022/12/13 08:09:27;;;;;;;21.70;8.70;;;;;;;-4.81;92.38;100419.78;5156825;28;20034;-73
2022/12/13 08:11:57;;;;;;;18.40;8.13;;;;;;;-4.56;95.85;100422.03;5159161;28;20027;-73
2022/12/13 08:14:28;;;;;;;20.50;9.00;;;;;;;-4.69;94.39;100418.34;5152841;28;20018;-73
2022/12/13 08:16:58;;;;;;;18.23;8.27;;;;;;;-3.93;94.81;100414.00;5156044;28;20035;-73
2022/12/13 08:19:29;;;;;;;17.35;8.48;;;;;;;-3.27;89.47;100418.63;5154805;28;20396;-72
2022/12/13 08:21:59;;;;;;;20.38;7.68;;;;;;;-3.13;86.65;100414.59;5158918;28;20033;-73
2022/12/13 08:24:30;;;;;;;19.38;8.32;;;;;;;-3.04;87.27;100413.88;5150577;28;20026;-73
2022/12/13 08:27:01;;;;;;;16.95;8.05;;;;;;;-2.73;85.55;100406.69;5156126;28;20438;-74
2022/12/13 08:29:35;;;;;;;17.80;8.10;;;;;;;-2.84;85.55;100412.50;5153376;28;20100;-74
2022/12/13 08:32:09;;;;;;;17.42;8.60;;;;;;;-3.02;86.65;100410.50;5159770;28;20038;-71
2022/12/13 08:34:40;;;;;;;18.02;8.18;;;;;;;-3.30;87.70;100416.03;5151346;28;20030;-73
2022/12/13 08:37:11;;;;;;;17.05;8.38;;;;;;;-3.68;88.83;100422.97;5155972;28;20026;-72
2022/12/13 08:39:43;;;;;;;17.65;8.00;;;;;;;-4.18;92.49;100436.44;5152672;28;20397;-71
2022/12/13 08:42:15;;;;;;;18.42;7.70;;;;;;;-4.22;94.03;100429.56;5155869;28;20037;-73
2022/12/13 08:44:48;;;;;;;21.92;8.52;;;;;;;-4.18;94.99;100421.13;5155616;28;20426;-72
2022/12/13 08:47:21;;;;;;;17.85;8.80;;;;;;;-3.91;94.61;100421.69;5154841;28;20113;-74
2022/12/13 08:49:57;;;;;;;20.13;8.85;;;;;;;-3.92;93.58;100419.97;5149818;28;20034;-72
2022/12/13 08:52:28;;;;;;;19.17;8.77;;;;;;;-3.91;93.84;100419.13;5162735;28;20037;-73
2022/12/13 08:54:58;;;;;;;21.65;9.07;;;;;;;-3.88;94.53;100424.28;5165051;28;20027;-73
2022/12/13 08:57:29;;;;;;;23.20;10.00;;;;;;;-4.20;96.69;100433.00;5159638;28;20486;-73
2022/12/13 08:59:59;;;;;;;20.02;9.05;;;;;;;-3.75;96.67;100421.13;5161540;28;20476;-72
2022/12/13 09:02:29;;;;;;;22.30;9.40;;;;;;;-4.00;96.09;100421.50;5174182;28;20040;-73
2022/12/13 09:04:59;;;;;;;23.40;10.40;;;;;;;-3.93;96.98;100418.25;5158300;28;20066;-73
2022/12/13 09:07:30;;;;;;;21.35;9.27;;;;;;;-3.87;97.81;100419.22;5153622;28;20038;-73
2022/12/13 09:10:00;;;;;;;23.15;9.68;;;;;;;-3.66;97.41;100424.72;5155252;28;20042;-72
2022/12/13 09:12:31;;;;;;;24.33;10.05;;;;;;;-3.80;98.06;100415.09;5153454;28;20716;-73
2022/12/13 09:15:01;;;;;;;21.02;9.40;;;;;;;-3.50;98.60;100421.63;5153086;28;20034;-73
2022/12/13 09:17:32;;;;;;;21.60;10.05;;;;;;;-3.52;97.90;100419.03;5153136;28;20065;-73
2022/12/13 09:20:02;;;;;;;20.48;8.77;;;;;;;-3.59;97.00;100417.19;5145926;28;20101;-72
2022/12/13 09:22:33;;;;;;;20.00;8.98;;;;;;;-3.43;97.83;100414.09;5150023;28;20057;-74
2022/12/13 09:25:04;;;;;;;21.10;9.77;;;;;;;-3.46;98.39;100416.59;5149374;28;20488;-73
2022/12/13 09:27:34;;;;;;;25.80;11.55;;;;;;;-3.57;98.95;100415.53;5155063;28;20116;-72
2022/12/13 09:30:06;;;;;;;25.42;11.00;;;;;;;-3.71;98.48;100415.25;5152972;28;20126;-72
2022/12/13 09:32:37;;;;;;;20.27;10.05;;;;;;;-3.59;98.93;100422.31;5148297;28;20038;-73
2022/12/13 09:35:08;;;;;;;21.70;9.40;;;;;;;-3.39;99.56;100420.13;5150564;28;20081;-74
2022/12/13 09:37:38;;;;;;;22.77;9.57;;;;;;;-3.06;100.00;100421.50;5149568;28;20039;-73
2022/12/13 09:40:17;;;;;;;19.38;8.98;;;;;;;-2.94;99.64;100428.50;5149393;28;20041;-73
2022/12/13 09:42:51;;;;;;;18.67;8.65;;;;;;;-2.83;99.47;100420.16;5153953;28;20026;-72
2022/12/13 09:45:22;;;;;;;22.10;10.05;;;;;;;-2.77;98.93;100422.84;5155154;28;20449;-73
2022/12/13 09:47:55;;;;;;;18.17;8.38;;;;;;;-2.83;97.77;100425.28;5142339;28;20062;-73
2022/12/13 09:50:33;;;;;;;21.42;8.82;;;;;;;-2.75;98.75;100418.59;5160105;28;20437;-73
2022/12/13 09:53:05;;;;;;;18.98;9.13;;;;;;;-2.61;99.23;100422.22;5146880;28;20437;-73
2022/12/13 09:55:40;;;;;;;19.55;8.93;;;;;;;-2.51;98.86;100424.03;5152484;28;20046;-73
2022/12/13 09:58:13;;;;;;;;;;;;;;;-2.49;98.91;100422.38;5152356;28;20443;-73
2022/12/13 10:00:45;;;;;;;21.38;9.55;;;;;;;-2.38;98.14;100409.72;5166066;28;19917;-73
2022/12/13 10:03:18;;;;;;;20.25;9.35;;;;;;;-2.31;97.96;100409.81;5156386;28;20266;-73
2022/12/13 10:06:13;;;;;;;21.77;9.77;;;;;;;-2.06;99.36;100399.06;5151539;28;20027;-73
2022/12/13 10:08:50;;;;;;;19.92;9.40;;;;;;;-2.02;98.38;100399.97;5154853;28;20030;-74
2022/12/13 10:11:21;;;;;;;19.95;8.82;;;;;;;-1.93;98.92;100389.81;5148707;28;20030;-73
2022/12/13 10:14:01;;;;;;;19.58;9.40;;;;;;;-1.86;100.00;100394.16;5151641;28;20033;-73
2022/12/13 10:16:37;;;;;;;22.35;10.32;;;;;;;-2.01;99.78;100397.41;5149052;28;20111;-73
2022/12/13 10:19:34;;;;;;;21.77;9.32;;;;;;;-2.31;100.00;100398.75;5155322;28;20034;-73
2022/12/13 10:22:10;;;;;;;22.55;10.30;;;;;;;-1.99;100.00;100394.88;5152747;28;20069;-73
2022/12/13 10:24:50;;;;;;;19.73;9.65;;;;;;;-1.80;100.00;100392.50;5151705;28;20117;-73
2022/12/13 10:27:33;;;;;;;21.23;9.45;;;;;;;-1.62;100.00;100398.69;5151190;28;20476;-73
2022/12/13 10:30:06;;;;;;;18.10;8.65;;;;;;;-1.61;99.24;100392.72;5152879;28;20030;-73
2022/12/13 10:32:57;;;;;;;17.85;9.15;;;;;;;-1.77;98.90;100395.97;5152227;28;20042;-73
2022/12/13 10:35:35;;;;;;;18.80;8.90;;;;;;;-1.62;99.14;100390.13;5149045;28;20508;-73
2022/12/13 10:38:06;;;;;;;23.00;10.15;;;;;;;-1.55;100.00;100379.13;5148517;28;20125;-73
2022/12/13 10:40:45;;;;;;;20.60;9.20;;;;;;;-1.58;100.00;100364.56;5149891;28;20113;-73
2022/12/13 10:43:23;;;;;;;20.55;9.30;;;;;;;-1.59;99.36;100369.69;5153253;28;20031;-74
2022/12/13 10:45:56;;;;;;;20.50;9.30;;;;;;;-1.50;100.00;100359.50;5158695;28;20018;-74
2022/12/13 10:48:59;;;;;;;21.02;9.68;;;;;;;-1.52;100.00;100361.22;5157458;28;20403;-73
2022/12/13 10:51:38;;;;;;;19.10;8.82;;;;;;;-1.39;100.00;100356.19;5141368;28;20061;-73
2022/12/13 10:54:24;;;;;;;21.20;8.85;;;;;;;-1.43;100.00;100359.59;5146953;28;20499;-73
2022/12/13 10:56:59;;;;;;;20.17;8.40;;;;;;;-1.37;99.17;100357.06;5151042;28;20140;-73
2022/12/13 10:59:31;;;;;;;17.30;8.77;;;;;;;-1.26;99.59;100362.31;5147679;28;20022;-73
2022/12/13 11:02:26;;;;;;;20.08;9.70;;;;;;;-1.21;98.92;100365.75;5163481;28;20057;-74
2022/12/13 11:04:58;;;;;;;19.50;8.98;;;;;;;-1.14;99.52;100357.25;5147221;28;20027;-74
2022/12/13 11:07:32;;;;;;;19.05;8.68;;;;;;;-1.24;99.80;100358.88;5152330;28;20022;-74
2022/12/13 11:10:26;;;;;;;19.67;8.73;;;;;;;-1.10;98.79;100349.59;5151518;28;20215;-73
2022/12/13 11:13:01;;;;;;;20.80;8.73;;;;;;;-1.26;98.67;100347.75;5149358;28;20078;-73
2022/12/13 11:15:34;;;;;;;18.45;8.98;;;;;;;-1.08;99.24;100341.94;5154587;28;20053;-73
2022/12/13 11:18:17;;;;;;;20.10;9.10;;;;;;;-1.05;98.34;100349.63;5149586;28;20037;-73
2022/12/13 11:20:59;;;;;;;15.70;8.32;;;;;;;-1.12;98.25;100345.28;5153131;28;20396;-74
2022/12/13 11:23:37;;;;;;;17.83;8.48;;;;;;;-1.12;98.22;100345.28;5151525;28;20104;-73
2022/12/13 11:26:13;;;;;;;21.17;9.57;;;;;;;-1.19;98.85;100338.41;5149480;28;20030;-73
2022/12/13 11:29:08;;;;;;;20.60;8.90;;;;;;;-1.20;98.45;100339.28;5148209;28;20100;-73
2022/12/13 11:32:03;;;;;;;18.80;9.05;;;;;;;-1.23;98.85;100331.56;5149815;28;20085;-73
2022/12/13 11:34:46;;;;;;;20.45;8.77;;;;;;;-1.17;98.37;100336.72;5149109;28;20073;-73
2022/12/13 11:37:39;;;;;;;17.85;8.43;;;;;;;-1.00;97.24;100335.13;5149671;28;20030;-73
2022/12/13 11:40:19;;;;;;;17.98;8.65;;;;;;;-1.01;97.69;100328.28;5142313;28;20038;-73
2022/12/13 11:42:58;;;;;;;18.90;8.73;;;;;;;-0.92;98.04;100328.38;5164820;28;20120;-73